Time,TemperatureF,DewpointF,PressureIn,WindDirection,WindDirectionDegrees,WindSpeedMPH,WindSpeedGustMPH,Humidity,HourlyPrecipIn,Conditions,Clouds,dailyrainin,SoftwareType,DateUTC
2013-01-20 00:00:00,29.0,-4.0,-100.00,North,-999,-999.0,-999.0,23,-99.99,,,-99.99,,2013-01-20 07:00:00,
2013-01-20 00:32:00,29.0,-4.0,-100.00,North,-999,-999.0,-999.0,23,-99.99,,,-99.99,,2013-01-20 07:32:00,
2013-01-20 00:42:00,29.0,-4.0,-100.00,North,-999,-999.0,-999.0,23,-99.99,,,-99.99,,2013-01-20 07:42:00,
2013-01-20 00:52:00,29.0,-4.0,-100.00,North,-999,-999.0,-999.0,23,-99.99,,,-99.99,,2013-01-20 07:52:00,
2013-01-20 01:00:00,28.0,-4.0,-100.00,North,-999,-999.0,-999.0,23,-99.99,,,-99.99,,2013-01-20 08:00:00,
2013-01-20 01:32:00,28.0,-4.0,-100.00,North,-999,-999.0,-999.0,23,-99.99,,,-99.99,,2013-01-20 08:32:00,
2013-01-20 01:42:00,28.0,-4.0,-100.00,North,-999,-999.0,-999.0,23,-99.99,,,-99.99,,2013-01-20 08:42:00,
2013-01-20 01:52:00,28.0,-4.0,-100.00,North,-999,-999.0,-999.0,23,-99.99,,,-99.99,,2013-01-20 08:52:00,
2013-01-20 02:00:00,25.0,-5.0,-100.00,North,-999,-999.0,-999.0,25,-99.99,,,-99.99,,2013-01-20 09:00:00,
2013-01-20 02:33:00,25.0,-5.0,-100.00,North,-999,-999.0,-999.0,25,-99.99,,,-99.99,,2013-01-20 09:33:00,
2013-01-20 02:42:00,25.0,-5.0,-100.00,North,-999,-999.0,-999.0,25,-99.99,,,-99.99,,2013-01-20 09:42:00,
2013-01-20 02:52:00,25.0,-5.0,-100.00,North,-999,-999.0,-999.0,25,-99.99,,,-99.99,,2013-01-20 09:52:00,
2013-01-20 03:00:00,26.0,-7.0,-100.00,North,-999,-999.0,-999.0,22,-99.99,,,-99.99,,2013-01-20 10:00:00,
2013-01-20 03:32:00,26.0,-7.0,-100.00,North,-999,-999.0,-999.0,22,-99.99,,,-99.99,,2013-01-20 10:32:00,
2013-01-20 03:42:00,26.0,-7.0,-100.00,North,-999,-999.0,-999.0,22,-99.99,,,-99.99,,2013-01-20 10:42:00,
2013-01-20 03:52:00,26.0,-7.0,-100.00,North,-999,-999.0,-999.0,22,-99.99,,,-99.99,,2013-01-20 10:52:00,
2013-01-20 05:00:00,25.0,-10.0,-100.00,North,-999,-999.0,-999.0,20,-99.99,,,-99.99,,2013-01-20 12:00:00,
2013-01-20 05:33:00,25.0,-10.0,-100.00,North,-999,-999.0,-999.0,20,-99.99,,,-99.99,,2013-01-20 12:33:00,
2013-01-20 05:43:00,25.0,-10.0,-100.00,North,-999,-999.0,-999.0,20,-99.99,,,-99.99,,2013-01-20 12:43:00,
2013-01-20 05:53:00,25.0,-10.0,-100.00,North,-999,-999.0,-999.0,20,-99.99,,,-99.99,,2013-01-20 12:53:00,
2013-01-20 06:00:00,26.0,-11.0,-100.00,North,-999,-999.0,-999.0,18,-99.99,,,-99.99,,2013-01-20 13:00:00,
2013-01-20 06:33:00,26.0,-11.0,-100.00,North,-999,-999.0,-999.0,18,-99.99,,,-99.99,,2013-01-20 13:33:00,
2013-01-20 06:43:00,26.0,-11.0,-100.00,North,-999,-999.0,-999.0,18,-99.99,,,-99.99,,2013-01-20 13:43:00,
2013-01-20 06:53:00,26.0,-11.0,-100.00,North,-999,-999.0,-999.0,18,-99.99,,,-99.99,,2013-01-20 13:53:00,
2013-01-20 07:00:00,27.0,-12.0,-100.00,North,-999,-999.0,-999.0,16,-99.99,,,-99.99,,2013-01-20 14:00:00,
2013-01-20 07:33:00,27.0,-12.0,-100.00,North,-999,-999.0,-999.0,16,-99.99,,,-99.99,,2013-01-20 14:33:00,
2013-01-20 07:43:00,27.0,-12.0,-100.00,North,-999,-999.0,-999.0,16,-99.99,,,-99.99,,2013-01-20 14:43:00,
2013-01-20 07:53:00,27.0,-12.0,-100.00,North,-999,-999.0,-999.0,16,-99.99,,,-99.99,,2013-01-20 14:53:00,
2013-01-20 08:00:00,27.0,-12.0,-100.00,North,-999,-999.0,-999.0,16,-99.99,,,-99.99,,2013-01-20 15:00:00,
2013-01-20 08:33:00,27.0,-12.0,-100.00,North,-999,-999.0,-999.0,16,-99.99,,,-99.99,,2013-01-20 15:33:00,
2013-01-20 08:43:00,27.0,-12.0,-100.00,North,-999,-999.0,-999.0,16,-99.99,,,-99.99,,2013-01-20 15:43:00,
2013-01-20 08:53:00,27.0,-12.0,-100.00,North,-999,-999.0,-999.0,16,-99.99,,,-99.99,,2013-01-20 15:53:00,
2013-01-20 09:33:00,34.0,-11.0,-100.00,North,-999,-999.0,-999.0,13,-99.99,,,-99.99,,2013-01-20 16:33:00,
2013-01-20 10:33:00,40.0,-9.0,-100.00,North,-999,-999.0,-999.0,11,-99.99,,,-99.99,,2013-01-20 17:33:00,
2013-01-20 11:33:00,40.0,-8.0,-100.00,North,-999,-999.0,-999.0,11,-99.99,,,-99.99,,2013-01-20 18:33:00,
2013-01-20 12:33:00,45.0,-5.0,-100.00,North,-999,-999.0,-999.0,11,-99.99,,,-99.99,,2013-01-20 19:33:00,
2013-01-20 13:00:00,41.0,-4.0,-100.00,North,-999,-999.0,-999.0,14,-99.99,,,-99.99,,2013-01-20 20:00:00,
2013-01-20 13:33:00,41.0,-4.0,-100.00,North,-999,-999.0,-999.0,14,-99.99,,,-99.99,,2013-01-20 20:33:00,
2013-01-20 14:00:00,38.0,1.0,-100.00,North,-999,-999.0,-999.0,20,-99.99,,,-99.99,,2013-01-20 21:00:00,
2013-01-20 14:33:00,38.0,1.0,-100.00,North,-999,-999.0,-999.0,20,-99.99,,,-99.99,,2013-01-20 21:33:00,
2013-01-20 14:43:00,38.0,1.0,-100.00,North,-999,-999.0,-999.0,20,-99.99,,,-99.99,,2013-01-20 21:43:00,
2013-01-20 14:53:00,38.0,1.0,-100.00,North,-999,-999.0,-999.0,20,-99.99,,,-99.99,,2013-01-20 21:53:00,
2013-01-20 15:00:00,32.0,2.0,-100.00,North,-999,-999.0,-999.0,27,-99.99,,,-99.99,,2013-01-20 22:00:00,
2013-01-20 15:33:00,32.0,2.0,-100.00,North,-999,-999.0,-999.0,27,-99.99,,,-99.99,,2013-01-20 22:33:00,
2013-01-20 15:43:00,32.0,2.0,-100.00,North,-999,-999.0,-999.0,27,-99.99,,,-99.99,,2013-01-20 22:43:00,
2013-01-20 15:53:00,32.0,2.0,-100.00,North,-999,-999.0,-999.0,27,-99.99,,,-99.99,,2013-01-20 22:53:00,
2013-01-20 16:00:00,28.0,-2.0,-100.00,North,-999,-999.0,-999.0,26,-99.99,,,-99.99,,2013-01-20 23:00:00,
2013-01-20 16:33:00,28.0,-2.0,-100.00,North,-999,-999.0,-999.0,26,-99.99,,,-99.99,,2013-01-20 23:33:00,
2013-01-20 16:43:00,28.0,-2.0,-100.00,North,-999,-999.0,-999.0,26,-99.99,,,-99.99,,2013-01-20 23:43:00,
2013-01-20 16:53:00,28.0,-2.0,-100.00,North,-999,-999.0,-999.0,26,-99.99,,,-99.99,,2013-01-20 23:53:00,
2013-01-20 17:00:00,27.0,-5.0,-100.00,North,-999,-999.0,-999.0,23,-99.99,,,-99.99,,2013-01-21 00:00:00,
2013-01-20 17:33:00,27.0,-5.0,-100.00,North,-999,-999.0,-999.0,23,-99.99,,,-99.99,,2013-01-21 00:33:00,
2013-01-20 17:43:00,27.0,-5.0,-100.00,North,-999,-999.0,-999.0,23,-99.99,,,-99.99,,2013-01-21 00:43:00,
2013-01-20 17:53:00,27.0,-5.0,-100.00,North,-999,-999.0,-999.0,23,-99.99,,,-99.99,,2013-01-21 00:53:00,
2013-01-20 18:00:00,26.0,-3.0,-100.00,North,-999,-999.0,-999.0,28,-99.99,,,-99.99,,2013-01-21 01:00:00,
2013-01-20 18:33:00,26.0,-3.0,-100.00,North,-999,-999.0,-999.0,28,-99.99,,,-99.99,,2013-01-21 01:33:00,
2013-01-20 18:43:00,26.0,-3.0,-100.00,North,-999,-999.0,-999.0,28,-99.99,,,-99.99,,2013-01-21 01:43:00,
2013-01-20 18:53:00,26.0,-3.0,-100.00,North,-999,-999.0,-999.0,28,-99.99,,,-99.99,,2013-01-21 01:53:00,
2013-01-20 19:00:00,26.0,-6.0,-100.00,North,-999,-999.0,-999.0,23,-99.99,,,-99.99,,2013-01-21 02:00:00,
2013-01-20 19:33:00,26.0,-6.0,-100.00,North,-999,-999.0,-999.0,23,-99.99,,,-99.99,,2013-01-21 02:33:00,
2013-01-20 19:43:00,26.0,-6.0,-100.00,North,-999,-999.0,-999.0,23,-99.99,,,-99.99,,2013-01-21 02:43:00,
2013-01-20 19:53:00,26.0,-6.0,-100.00,North,-999,-999.0,-999.0,23,-99.99,,,-99.99,,2013-01-21 02:53:00,
2013-01-20 20:00:00,25.0,-8.0,-100.00,North,-999,-999.0,-999.0,21,-99.99,,,-99.99,,2013-01-21 03:00:00,
2013-01-20 20:33:00,25.0,-8.0,-100.00,North,-999,-999.0,-999.0,21,-99.99,,,-99.99,,2013-01-21 03:33:00,
2013-01-20 20:43:00,25.0,-8.0,-100.00,North,-999,-999.0,-999.0,21,-99.99,,,-99.99,,2013-01-21 03:43:00,
2013-01-20 20:53:00,25.0,-8.0,-100.00,North,-999,-999.0,-999.0,21,-99.99,,,-99.99,,2013-01-21 03:53:00,
2013-01-20 21:00:00,25.0,-10.0,-100.00,North,-999,-999.0,-999.0,19,-99.99,,,-99.99,,2013-01-21 04:00:00,
2013-01-20 21:33:00,25.0,-10.0,-100.00,North,-999,-999.0,-999.0,19,-99.99,,,-99.99,,2013-01-21 04:33:00,
2013-01-20 21:43:00,25.0,-10.0,-100.00,North,-999,-999.0,-999.0,19,-99.99,,,-99.99,,2013-01-21 04:43:00,
2013-01-20 21:53:00,25.0,-10.0,-100.00,North,-999,-999.0,-999.0,19,-99.99,,,-99.99,,2013-01-21 04:53:00,
2013-01-20 22:00:00,27.0,-15.0,-100.00,North,-999,-999.0,-999.0,14,-99.99,,,-99.99,,2013-01-21 05:00:00,
2013-01-20 22:34:00,27.0,-15.0,-100.00,North,-999,-999.0,-999.0,14,-99.99,,,-99.99,,2013-01-21 05:34:00,
2013-01-20 22:42:00,27.0,-15.0,-100.00,North,-999,-999.0,-999.0,14,-99.99,,,-99.99,,2013-01-21 05:42:00,
2013-01-20 22:53:00,27.0,-15.0,-100.00,North,-999,-999.0,-999.0,14,-99.99,,,-99.99,,2013-01-21 05:53:00,
2013-01-20 23:00:00,28.0,-14.0,-100.00,North,-999,-999.0,-999.0,14,-99.99,,,-99.99,,2013-01-21 06:00:00,
2013-01-20 23:33:00,28.0,-14.0,-100.00,North,-999,-999.0,-999.0,14,-99.99,,,-99.99,,2013-01-21 06:33:00,
2013-01-20 23:43:00,28.0,-14.0,-100.00,North,-999,-999.0,-999.0,14,-99.99,,,-99.99,,2013-01-21 06:43:00,
2013-01-20 23:53:00,28.0,-14.0,-100.00,North,-999,-999.0,-999.0,14,-99.99,,,-99.99,,2013-01-21 06:53:00,